createdAt,value
2023-02-02T00:02:00.561Z,99413.19
2023-02-02T00:04:35.034Z,99406.25
2023-02-02T00:07:03.739Z,99411.47
2023-02-02T00:09:31.793Z,99409.72
2023-02-02T00:12:00.159Z,99397.63
2023-02-02T00:14:26.861Z,99399.38
2023-02-02T00:16:55.962Z,99401.97
2023-02-02T00:19:26.387Z,99396.78
2023-02-02T00:21:54.496Z,99395.81
2023-02-02T00:24:21.229Z,99393.19
2023-02-02T00:26:50.953Z,99395.81
2023-02-02T00:29:26.339Z,99405.38
2023-02-02T00:31:53.419Z,99403.59
2023-02-02T00:34:21.105Z,99405.38
2023-02-02T00:36:48.885Z,99412.28
2023-02-02T00:39:21.388Z,99407.97
2023-02-02T00:41:48.535Z,99413.13
2023-02-02T00:44:33.934Z,99405.41
2023-02-02T00:47:00.565Z,99409.69
2023-02-02T00:49:27.335Z,99417.44
2023-02-02T00:51:54.038Z,99416.63
2023-02-02T00:54:20.652Z,99422.75
2023-02-02T00:56:47.531Z,99427.97
2023-02-02T00:59:14.144Z,99420.13
2023-02-02T01:01:40.984Z,99421.81
2023-02-02T01:04:07.619Z,99420.94
2023-02-02T01:06:34.579Z,99418.41
2023-02-02T01:09:01.183Z,99422.75
2023-02-02T01:11:27.766Z,99412.31
2023-02-02T01:13:54.354Z,99427.16
2023-02-02T01:16:22.534Z,99425.34
2023-02-02T01:18:50.907Z,99421.84
2023-02-02T01:21:17.976Z,99417.50
2023-02-02T01:23:44.690Z,99421.81
2023-02-02T01:26:12.861Z,99426.97
2023-02-02T01:28:40.189Z,99425.34
2023-02-02T01:31:18.969Z,99423.47
2023-02-02T01:33:47.522Z,99418.25
2023-02-02T01:36:17.012Z,99426.91
2023-02-02T01:38:44.029Z,99424.28
2023-02-02T01:41:16.836Z,99419.97
2023-02-02T01:43:43.291Z,99420.84
2023-02-02T01:46:18.093Z,99413.81
2023-02-02T01:48:49.668Z,99419.91
2023-02-02T01:51:19.673Z,99417.25
2023-02-02T01:53:49.411Z,99411.13
2023-02-02T01:56:24.525Z,99415.59
2023-02-02T01:58:51.301Z,99425.13
2023-02-02T02:01:17.920Z,99423.38
2023-02-02T02:03:44.722Z,99408.59
2023-02-02T02:06:15.790Z,99405.19
2023-02-02T02:08:53.403Z,99400.03
2023-02-02T02:11:21.115Z,99403.44
2023-02-02T02:14:06.665Z,99411.31
2023-02-02T02:17:10.482Z,99410.44
2023-02-02T02:20:11.133Z,99407.84
2023-02-02T02:23:27.133Z,99404.38
2023-02-02T02:26:33.824Z,99402.59
2023-02-02T02:29:19.193Z,99408.63
2023-02-02T02:31:51.931Z,99413.00
2023-02-02T02:34:36.097Z,99422.53
2023-02-02T02:37:05.655Z,99423.44
2023-02-02T02:39:39.353Z,99415.53
2023-02-02T02:42:14.870Z,99429.44
2023-02-02T02:44:42.221Z,99431.25
2023-02-02T02:47:09.688Z,99432.91
2023-02-02T02:49:43.962Z,99429.44
2023-02-02T02:52:10.994Z,99423.44
2023-02-02T02:54:56.400Z,99423.44
2023-02-02T02:57:41.378Z,99432.97
2023-02-02T03:00:40.525Z,99429.56
2023-02-02T03:03:37.306Z,99438.19
2023-02-02T03:06:16.923Z,99442.53
2023-02-02T03:08:58.537Z,99440.81
2023-02-02T03:11:25.500Z,99433.84
2023-02-02T03:13:52.339Z,99441.63
2023-02-02T03:16:19.033Z,99439.00
2023-02-02T03:18:45.737Z,99432.06
2023-02-02T03:21:12.651Z,99426.78
2023-02-02T03:23:39.858Z,99426.78
2023-02-02T03:26:07.324Z,99421.56
2023-02-02T03:28:34.471Z,99430.19
2023-02-02T03:31:02.165Z,99438.84
2023-02-02T03:33:30.772Z,99431.97
2023-02-02T03:35:57.325Z,99436.28
2023-02-02T03:38:23.865Z,99428.41
2023-02-02T03:40:51.595Z,99430.19
2023-02-02T03:43:24.755Z,99427.53
2023-02-02T03:46:00.016Z,99426.66
2023-02-02T03:48:26.963Z,99435.38
2023-02-02T03:50:56.924Z,99432.75
2023-02-02T03:53:24.416Z,99440.50
2023-02-02T03:55:51.016Z,99435.38
2023-02-02T03:58:17.663Z,99436.19
2023-02-02T04:00:44.300Z,99439.63
2023-02-02T04:03:10.988Z,99441.41
2023-02-02T04:05:37.568Z,99447.50
2023-02-02T04:08:04.310Z,99451.84
2023-02-02T04:10:30.830Z,99450.06
2023-02-02T04:12:57.497Z,99450.91
2023-02-02T04:15:24.279Z,99455.34
2023-02-02T04:17:50.965Z,99448.44
2023-02-02T04:20:17.692Z,99454.47
2023-02-02T04:22:44.381Z,99445.81
2023-02-02T04:25:10.904Z,99453.63
2023-02-02T04:27:37.476Z,99455.34
2023-02-02T04:30:04.339Z,99453.66
2023-02-02T04:32:30.855Z,99452.72
2023-02-02T04:34:57.417Z,99440.63
2023-02-02T04:37:24.015Z,99448.44
2023-02-02T04:39:50.726Z,99432.81
2023-02-02T04:42:17.434Z,99440.63
2023-02-02T04:44:45.855Z,99437.13
2023-02-02T04:47:12.677Z,99434.53
2023-02-02T04:49:39.329Z,99441.44
2023-02-02T04:52:06.182Z,99437.13
2023-02-02T04:54:33.852Z,99436.22
2023-02-02T04:57:00.386Z,99439.72
2023-02-02T04:59:30.094Z,99444.00
2023-02-02T05:02:01.237Z,99449.22
2023-02-02T05:04:28.104Z,99457.94
2023-02-02T05:06:55.202Z,99459.63
2023-02-02T05:09:21.840Z,99457.94
2023-02-02T05:11:48.398Z,99461.28
2023-02-02T05:14:18.701Z,99463.97
2023-02-02T05:16:45.401Z,99471.78
2023-02-02T05:19:12.803Z,99470.09
2023-02-02T05:21:39.419Z,99479.59
2023-02-02T05:24:06.149Z,99475.22
2023-02-02T05:26:32.687Z,99483.84
2023-02-02T05:28:59.410Z,99482.16
2023-02-02T05:31:26.000Z,99479.59
2023-02-02T05:33:52.712Z,99485.63
2023-02-02T05:36:19.370Z,99479.50
2023-02-02T05:38:45.903Z,99488.19
2023-02-02T05:41:12.456Z,99489.88
2023-02-02T05:43:39.051Z,99485.53
2023-02-02T05:46:05.729Z,99497.72
2023-02-02T05:48:32.539Z,99499.50
2023-02-02T05:51:16.438Z,99501.22
2023-02-02T05:53:45.146Z,99509.00
2023-02-02T05:56:12.839Z,99513.34
2023-02-02T05:58:39.520Z,99516.81
2023-02-02T06:01:06.182Z,99512.50
2023-02-02T06:03:32.903Z,99515.91
2023-02-02T06:05:59.926Z,99527.25
2023-02-02T06:08:26.480Z,99537.66
2023-02-02T06:10:53.004Z,99540.28
2023-02-02T06:13:19.605Z,99544.50
2023-02-02T06:15:46.312Z,99543.66
2023-02-02T06:18:12.919Z,99542.81
2023-02-02T06:20:39.833Z,99546.25
2023-02-02T06:23:06.711Z,99545.41
2023-02-02T06:25:34.362Z,99534.97
2023-02-02T06:28:01.424Z,99529.78
2023-02-02T06:30:28.591Z,99539.41
2023-02-02T06:32:55.158Z,99525.38
2023-02-02T06:35:21.843Z,99534.09
2023-02-02T06:37:49.238Z,99526.34
2023-02-02T06:40:15.989Z,99532.41
2023-02-02T06:42:42.574Z,99534.09
2023-02-02T06:45:09.831Z,99545.31
2023-02-02T06:47:36.404Z,99532.31
2023-02-02T06:50:03.951Z,99531.47
2023-02-02T06:52:30.557Z,99528.88
2023-02-02T06:54:57.108Z,99521.94
2023-02-02T06:57:23.738Z,99528.00
2023-02-02T06:59:51.216Z,99532.28
2023-02-02T07:02:17.849Z,99539.19
2023-02-02T07:04:44.443Z,99534.09
2023-02-02T07:07:10.972Z,99521.03
2023-02-02T07:09:37.508Z,99521.03
2023-02-02T07:12:04.096Z,99520.97
2023-02-02T07:14:30.664Z,99523.56
2023-02-02T07:16:57.173Z,99518.34
2023-02-02T07:19:23.786Z,99514.81
2023-02-02T07:21:50.353Z,99512.22
2023-02-02T07:24:16.939Z,99516.53
2023-02-02T07:26:43.751Z,99523.56
2023-02-02T07:29:13.988Z,99527.06
2023-02-02T07:31:40.692Z,99539.22
2023-02-02T07:34:07.519Z,99542.69
2023-02-02T07:36:34.417Z,99545.31
2023-02-02T07:39:03.996Z,99547.94
2023-02-02T07:41:31.610Z,99558.34
2023-02-02T07:43:58.209Z,99564.31
2023-02-02T07:46:25.052Z,99579.88
2023-02-02T07:48:55.507Z,99579.88
2023-02-02T07:51:23.090Z,99580.75
2023-02-02T07:53:51.962Z,99583.44
2023-02-02T07:56:21.185Z,99585.19
2023-02-02T07:58:48.542Z,99591.28
2023-02-02T08:01:16.168Z,99606.91
2023-02-02T08:03:43.695Z,99611.25
2023-02-02T08:06:17.688Z,99616.47
2023-02-02T08:08:44.637Z,99608.63
2023-02-02T08:11:14.183Z,99606.88
2023-02-02T08:13:42.205Z,99610.31
2023-02-02T08:16:09.918Z,99604.22
2023-02-02T08:18:37.301Z,99608.53
2023-02-02T08:21:05.943Z,99609.38
2023-02-02T08:23:32.615Z,99611.06
2023-02-02T08:26:10.759Z,99611.13
2023-02-02T08:28:38.384Z,99614.56
2023-02-02T08:31:21.679Z,99617.09
2023-02-02T08:33:49.111Z,99613.56
2023-02-02T08:36:19.389Z,99614.44
2023-02-02T08:38:46.280Z,99622.22
2023-02-02T08:41:16.452Z,99617.09
2023-02-02T08:43:43.690Z,99626.63
2023-02-02T08:46:12.278Z,99631.03
2023-02-02T08:48:39.337Z,99619.72
2023-02-02T08:51:07.560Z,99614.44
2023-02-02T08:53:34.603Z,99603.16
2023-02-02T08:56:18.590Z,99612.69
2023-02-02T08:58:53.168Z,99606.56
2023-02-02T09:01:22.658Z,99617.88
2023-02-02T09:03:53.152Z,99616.91
2023-02-02T09:06:21.216Z,99617.72
2023-02-02T09:08:48.556Z,99617.72
2023-02-02T09:11:19.626Z,99613.28
2023-02-02T09:13:51.012Z,99618.44
2023-02-02T09:16:18.679Z,99617.50
2023-02-02T09:18:45.758Z,99627.03
2023-02-02T09:21:15.044Z,99626.97
2023-02-02T09:23:43.604Z,99632.13
2023-02-02T09:26:16.641Z,99629.38
2023-02-02T09:28:49.634Z,99636.81
2023-02-02T09:31:16.725Z,99643.84
2023-02-02T09:33:43.798Z,99631.13
2023-02-02T09:36:10.369Z,99635.09
2023-02-02T09:38:37.946Z,99636.00
2023-02-02T09:41:26.319Z,99628.28
2023-02-02T09:44:14.739Z,99638.97
2023-02-02T09:47:01.996Z,99640.47
2023-02-02T09:49:43.379Z,99643.75
2023-02-02T09:52:18.763Z,99662.31
2023-02-02T09:54:48.503Z,99658.06
2023-02-02T09:57:22.664Z,99658.22
2023-02-02T09:59:51.237Z,99668.69
2023-02-02T10:02:33.335Z,99666.34
2023-02-02T10:05:27.161Z,99662.13
2023-02-02T10:07:59.654Z,99663.16
2023-02-02T10:10:40.921Z,99661.53
2023-02-02T10:13:16.105Z,99667.38
2023-02-02T10:15:49.194Z,99669.03
2023-02-02T10:18:27.902Z,99671.41
2023-02-02T10:20:59.096Z,99676.69
2023-02-02T10:23:30.902Z,99677.53
2023-02-02T10:26:20.354Z,99681.59
2023-02-02T10:29:19.145Z,99684.22
2023-02-02T10:32:23.710Z,99692.84
2023-02-02T10:35:11.017Z,99686.72
2023-02-02T10:37:57.424Z,99696.50
2023-02-02T10:40:44.714Z,99705.22
2023-02-02T10:43:54.500Z,99688.75
2023-02-02T10:46:30.569Z,99693.91
2023-02-02T10:49:29.003Z,99701.91
2023-02-02T10:52:12.692Z,99715.16
2023-02-02T10:54:56.050Z,99716.72
2023-02-02T10:57:34.478Z,99706.28
2023-02-02T11:00:07.727Z,99711.50
2023-02-02T11:02:34.338Z,99709.84
2023-02-02T11:05:19.498Z,99708.97
2023-02-02T11:07:46.120Z,99701.03
2023-02-02T11:10:12.831Z,99702.50
2023-02-02T11:12:45.240Z,99703.00
2023-02-02T11:15:29.834Z,99707.22
2023-02-02T11:17:56.905Z,99715.88
2023-02-02T11:20:33.346Z,99713.13
2023-02-02T11:23:02.590Z,99711.94
2023-02-02T11:25:37.956Z,99717.06
2023-02-02T11:28:18.952Z,99712.59
2023-02-02T11:30:52.476Z,99705.28
2023-02-02T11:33:33.850Z,99708.56
2023-02-02T11:36:05.019Z,99703.13
2023-02-02T11:38:32.401Z,99703.25
2023-02-02T11:41:06.662Z,99710.06
2023-02-02T11:43:44.221Z,99704.81
2023-02-02T11:46:19.764Z,99701.31
2023-02-02T11:49:10.181Z,99695.16
2023-02-02T11:51:36.882Z,99690.75
2023-02-02T11:54:15.227Z,99685.25
2023-02-02T11:56:42.769Z,99676.50
2023-02-02T11:59:27.236Z,99676.31
2023-02-02T12:02:22.530Z,99680.72
2023-02-02T12:04:52.437Z,99678.47
2023-02-02T12:07:29.941Z,99680.03
2023-02-02T12:10:01.243Z,99680.97
2023-02-02T12:12:53.700Z,99683.59
2023-02-02T12:15:37.627Z,99675.19
2023-02-02T12:18:33.118Z,99679.38
2023-02-02T12:21:06.806Z,99684.50
2023-02-02T12:23:42.543Z,99690.75
2023-02-02T12:26:20.334Z,99688.09
2023-02-02T12:29:05.675Z,99684.81
2023-02-02T12:31:44.399Z,99677.78
2023-02-02T12:34:38.842Z,99662.06
2023-02-02T12:37:27.368Z,99675.09
2023-02-02T12:40:32.631Z,99671.72
2023-02-02T12:43:42.596Z,99667.19
2023-02-02T12:46:46.485Z,99673.22
2023-02-02T12:49:33.978Z,99663.53
2023-02-02T12:52:03.522Z,99670.38
2023-02-02T12:54:50.014Z,99670.44
2023-02-02T12:57:30.170Z,99665.78
2023-02-02T13:00:24.091Z,99666.44
2023-02-02T13:03:28.136Z,99665.78
2023-02-02T13:06:13.360Z,99673.56
2023-02-02T13:08:52.117Z,99681.03
2023-02-02T13:11:52.452Z,99675.13
2023-02-02T13:14:31.167Z,99667.38
2023-02-02T13:17:05.328Z,99675.47
2023-02-02T13:20:03.278Z,99675.00
2023-02-02T13:22:40.643Z,99660.50
2023-02-02T13:25:16.494Z,99658.03
2023-02-02T13:27:44.702Z,99662.50
2023-02-02T13:30:25.754Z,99672.66
2023-02-02T13:32:57.406Z,99667.09
2023-02-02T13:35:31.650Z,99666.06
2023-02-02T13:38:15.905Z,99666.75
2023-02-02T13:40:44.054Z,99664.34
2023-02-02T13:43:48.221Z,99658.34
2023-02-02T13:46:36.746Z,99665.59
2023-02-02T13:49:13.391Z,99657.50
2023-02-02T13:51:51.107Z,99666.50
2023-02-02T13:55:00.686Z,99665.72
2023-02-02T13:57:53.030Z,99663.28
2023-02-02T14:00:21.384Z,99668.75
2023-02-02T14:02:56.135Z,99665.53
2023-02-02T14:05:26.227Z,99672.59
2023-02-02T14:08:18.487Z,99668.25
2023-02-02T14:10:54.187Z,99673.50
2023-02-02T14:14:04.268Z,99681.44
2023-02-02T14:16:30.735Z,99679.00
2023-02-02T14:18:59.183Z,99683.31
2023-02-02T14:21:31.984Z,99673.75
2023-02-02T14:24:27.696Z,99672.16
2023-02-02T14:27:02.281Z,99691.31
2023-02-02T14:29:31.876Z,99693.06
2023-02-02T14:32:29.245Z,99688.03
2023-02-02T14:35:09.921Z,99702.88
2023-02-02T14:38:01.295Z,99696.75
2023-02-02T14:40:46.302Z,99691.75
2023-02-02T14:43:45.135Z,99707.34
2023-02-02T14:46:14.836Z,99708.16
2023-02-02T14:48:44.505Z,99711.69
2023-02-02T14:51:16.584Z,99717.81
2023-02-02T14:53:53.143Z,99723.09
2023-02-02T14:56:21.968Z,99729.31
2023-02-02T14:58:51.609Z,99731.03
2023-02-02T15:01:18.180Z,99726.00
2023-02-02T15:03:47.721Z,99732.06
2023-02-02T15:06:35.218Z,99737.38
2023-02-02T15:09:37.778Z,99738.38
2023-02-02T15:12:04.544Z,99744.53
2023-02-02T15:14:51.726Z,99746.22
2023-02-02T15:17:38.802Z,99754.13
2023-02-02T15:20:05.368Z,99755.06
2023-02-02T15:22:50.623Z,99761.19
2023-02-02T15:25:31.012Z,99761.22
2023-02-02T15:28:16.250Z,99766.44
2023-02-02T15:30:45.557Z,99770.13
2023-02-02T15:33:31.628Z,99762.28
2023-02-02T15:36:03.793Z,99781.41
2023-02-02T15:38:37.845Z,99774.53
2023-02-02T15:41:43.700Z,99787.53
2023-02-02T15:44:21.014Z,99784.09
2023-02-02T15:46:49.249Z,99784.09
2023-02-02T15:49:33.358Z,99782.44
2023-02-02T15:52:14.399Z,99786.00
2023-02-02T15:54:51.794Z,99788.75
2023-02-02T15:57:26.877Z,99789.66
2023-02-02T15:59:53.469Z,99789.75
2023-02-02T16:02:27.754Z,99792.31
2023-02-02T16:04:54.390Z,99800.13
2023-02-02T16:07:30.229Z,99810.63
2023-02-02T16:10:06.138Z,99809.84
2023-02-02T16:12:34.416Z,99809.84
2023-02-02T16:15:01.255Z,99814.28
2023-02-02T16:17:32.162Z,99821.34
2023-02-02T16:20:09.575Z,99821.38
2023-02-02T16:22:38.036Z,99825.75
2023-02-02T16:25:12.363Z,99831.91
2023-02-02T16:27:45.103Z,99824.13
2023-02-02T16:30:37.799Z,99826.03
2023-02-02T16:33:49.468Z,99828.69
2023-02-02T16:36:25.538Z,99834.03
2023-02-02T16:38:53.887Z,99841.03
2023-02-02T16:41:34.597Z,99837.53
2023-02-02T16:44:28.967Z,99853.25
2023-02-02T16:46:56.325Z,99861.22
2023-02-02T16:49:26.389Z,99860.28
2023-02-02T16:52:10.575Z,99866.47
2023-02-02T16:54:38.719Z,99865.56
2023-02-02T16:57:05.563Z,99860.44
2023-02-02T16:59:35.877Z,99867.31
2023-02-02T17:02:27.517Z,99869.06
2023-02-02T17:05:00.203Z,99865.66
2023-02-02T17:07:28.282Z,99874.38
2023-02-02T17:10:16.805Z,99879.59
2023-02-02T17:12:45.174Z,99881.38
2023-02-02T17:15:17.621Z,99881.31
2023-02-02T17:17:47.771Z,99884.81
2023-02-02T17:20:15.315Z,99885.66
2023-02-02T17:22:45.327Z,99879.66
2023-02-02T17:25:18.048Z,99878.78
2023-02-02T17:27:45.525Z,99874.47
2023-02-02T17:30:17.882Z,99871.75
2023-02-02T17:32:44.476Z,99877.88
2023-02-02T17:35:22.626Z,99883.16
2023-02-02T17:37:49.813Z,99886.69
2023-02-02T17:40:18.739Z,99884.00
2023-02-02T17:42:48.274Z,99883.09
2023-02-02T17:45:31.691Z,99885.69
2023-02-02T17:48:00.361Z,99881.41
2023-02-02T17:50:28.174Z,99886.63
2023-02-02T17:52:55.228Z,99902.34
2023-02-02T17:55:29.650Z,99909.41
2023-02-02T17:57:56.679Z,99905.84
2023-02-02T18:00:25.832Z,99901.53
2023-02-02T18:02:57.648Z,99918.91
2023-02-02T18:05:24.430Z,99918.13
2023-02-02T18:07:51.605Z,99917.19
2023-02-02T18:10:24.842Z,99910.16
2023-02-02T18:12:51.865Z,99912.72
2023-02-02T18:15:18.498Z,99910.16
2023-02-02T18:17:45.595Z,99910.09
2023-02-02T18:20:15.134Z,99910.09
2023-02-02T18:22:47.248Z,99905.75
2023-02-02T18:25:14.694Z,99918.78
2023-02-02T18:27:41.377Z,99911.75
2023-02-02T18:30:08.776Z,99903.97
2023-02-02T18:32:39.449Z,99912.63
2023-02-02T18:35:07.635Z,99906.56
2023-02-02T18:37:35.703Z,99910.91
2023-02-02T18:40:02.564Z,99924.84
2023-02-02T18:42:34.937Z,99926.56
2023-02-02T18:45:02.123Z,99917.06
2023-02-02T18:47:28.711Z,99923.06
2023-02-02T18:49:55.485Z,99925.69
2023-02-02T18:52:22.675Z,99919.63
2023-02-02T18:54:49.796Z,99917.91
2023-02-02T18:57:17.374Z,99919.63
2023-02-02T18:59:44.033Z,99922.25
2023-02-02T19:02:14.863Z,99915.28
2023-02-02T19:05:01.896Z,99914.41
2023-02-02T19:07:47.003Z,99913.56
2023-02-02T19:10:14.306Z,99916.19
2023-02-02T19:12:40.849Z,99903.97
2023-02-02T19:15:13.083Z,99903.06
2023-02-02T19:17:40.416Z,99911.75
2023-02-02T19:20:23.306Z,99910.91
2023-02-02T19:22:52.429Z,99906.56
2023-02-02T19:25:19.111Z,99910.00
2023-02-02T19:27:45.687Z,99909.19
2023-02-02T19:30:20.427Z,99907.41
2023-02-02T19:32:47.456Z,99903.91
2023-02-02T19:35:21.322Z,99907.41
2023-02-02T19:37:49.637Z,99908.28
2023-02-02T19:40:20.395Z,99912.56
2023-02-02T19:42:56.525Z,99923.06
2023-02-02T19:45:28.422Z,99916.03
2023-02-02T19:48:00.381Z,99914.34
2023-02-02T19:50:29.735Z,99913.44
2023-02-02T19:52:56.442Z,99911.75
2023-02-02T19:55:28.990Z,99917.78
2023-02-02T19:58:01.431Z,99921.28
2023-02-02T20:00:31.322Z,99923.00
2023-02-02T20:03:09.271Z,99919.56
2023-02-02T20:05:44.992Z,99920.38
2023-02-02T20:08:26.977Z,99925.59
2023-02-02T20:10:56.231Z,99924.75
2023-02-02T20:13:43.560Z,99926.50
2023-02-02T20:16:22.469Z,99929.97
2023-02-02T20:18:54.056Z,99936.91
2023-02-02T20:21:25.981Z,99931.72
2023-02-02T20:23:52.899Z,99936.13
2023-02-02T20:26:35.755Z,99938.69
2023-02-02T20:29:16.635Z,99934.41
2023-02-02T20:31:43.594Z,99939.63
2023-02-02T20:34:32.850Z,99942.16
2023-02-02T20:37:22.917Z,99934.31
2023-02-02T20:39:57.359Z,99934.38
2023-02-02T20:42:24.819Z,99931.72
2023-02-02T20:44:52.231Z,99936.94
2023-02-02T20:47:18.862Z,99931.78
2023-02-02T20:49:46.149Z,99931.78
2023-02-02T20:52:21.490Z,99940.44
2023-02-02T20:54:48.495Z,99931.72
2023-02-02T20:57:15.378Z,99936.94
2023-02-02T20:59:42.451Z,99936.94
2023-02-02T21:02:18.926Z,99938.69
2023-02-02T21:04:47.346Z,99937.81
2023-02-02T21:07:18.512Z,99937.75
2023-02-02T21:09:45.364Z,99942.13
2023-02-02T21:12:12.020Z,99935.16
2023-02-02T21:14:39.006Z,99933.41
2023-02-02T21:17:14.924Z,99940.38
2023-02-02T21:19:42.519Z,99940.50
2023-02-02T21:22:09.154Z,99942.13
2023-02-02T21:24:35.732Z,99942.16
2023-02-02T21:27:04.637Z,99938.69
2023-02-02T21:29:32.571Z,99945.63
2023-02-02T21:32:02.165Z,99944.75
2023-02-02T21:34:29.681Z,99952.56
2023-02-02T21:36:58.168Z,99942.13
2023-02-02T21:39:34.968Z,99946.47
2023-02-02T21:42:01.458Z,99949.91
2023-02-02T21:44:28.061Z,99937.72
2023-02-02T21:46:54.690Z,99937.72
2023-02-02T21:49:26.630Z,99947.34
2023-02-02T21:52:00.721Z,99945.50
2023-02-02T21:54:30.586Z,99943.78
2023-02-02T21:56:57.248Z,99943.78
2023-02-02T21:59:33.501Z,99945.50
2023-02-02T22:02:16.720Z,99945.50
2023-02-02T22:04:43.713Z,99941.13
2023-02-02T22:07:15.256Z,99933.28
2023-02-02T22:09:44.693Z,99918.53
2023-02-02T22:12:25.438Z,99919.31
2023-02-02T22:14:55.154Z,99917.59
2023-02-02T22:17:26.547Z,99921.91
2023-02-02T22:20:03.099Z,99932.34
2023-02-02T22:22:35.363Z,99933.19
2023-02-02T22:25:17.215Z,99927.13
2023-02-02T22:27:57.524Z,99934.97
2023-02-02T22:30:37.258Z,99934.09
2023-02-02T22:33:06.423Z,99939.25
2023-02-02T22:35:33.848Z,99938.34
2023-02-02T22:38:00.771Z,99933.13
2023-02-02T22:40:27.827Z,99933.94
2023-02-02T22:42:56.692Z,99939.16
2023-02-02T22:45:24.046Z,99939.19
2023-02-02T22:47:51.003Z,99941.84
2023-02-02T22:50:20.546Z,99940.94
2023-02-02T22:52:47.400Z,99946.16
2023-02-02T22:55:14.721Z,99952.22
2023-02-02T22:57:41.312Z,99959.19
2023-02-02T23:00:12.043Z,99965.28
2023-02-02T23:02:39.496Z,99965.28
2023-02-02T23:05:11.018Z,99956.59
2023-02-02T23:07:38.405Z,99966.22
2023-02-02T23:10:06.367Z,99965.41
2023-02-02T23:12:33.460Z,99967.09
2023-02-02T23:15:00.032Z,99973.16
2023-02-02T23:17:26.606Z,99975.72
2023-02-02T23:19:53.189Z,99961.81
2023-02-02T23:22:19.805Z,99963.63
2023-02-02T23:24:46.463Z,99962.72
2023-02-02T23:27:13.177Z,99967.03
2023-02-02T23:29:40.087Z,99971.44
2023-02-02T23:32:07.182Z,99977.50
2023-02-02T23:34:33.828Z,99967.88
2023-02-02T23:37:00.421Z,99966.16
2023-02-02T23:39:27.007Z,99971.38
2023-02-02T23:41:53.581Z,99958.31
2023-02-02T23:44:20.186Z,99954.91
2023-02-02T23:46:47.237Z,99947.06
2023-02-02T23:49:13.959Z,99954.97
2023-02-02T23:51:40.898Z,99956.69
2023-02-02T23:54:08.346Z,99953.16
2023-02-02T23:56:34.953Z,99959.28
2023-02-02T23:59:01.597Z,99956.75
